KDNV/DNV METAR and TAF weather

Enter ICAO airport designator
Station Type Date Time Source
KDNV METAR 2018/01/23 01:55 UTC NOAA

KDNV 230155Z AUTO 27011G21KT 10SM -RA SCT016 BKN023 OVC040 04/03 A2956 RMK AO2 P0003 T00430025


Station Type Date Time Source
KDNV Decoded METAR 2018/01/23 01:55 UTC NOAA

Danville, Vermilion County Airport, IL, United States (KDNV) 40-11-58N 087-35-44W
Jan 22, 2018 - 08:55 PM EST / 2018.01.23 0155 UTC
Wind: from the W (270 degrees) at 13 MPH (11 KT) gusting to 24 MPH (21 KT):0
Visibility: 10 mile(s):0
Sky conditions: overcast
Weather: light rain
Precipitation last hour: 0.03 inches
Temperature: 39.7 F (4.3 C)
Dew Point: 36.5 F (2.5 C)
Relative Humidity: 88%
Pressure (altimeter): 29.56 in. Hg (1001 hPa)
ob: KDNV 230155Z AUTO 27011G21KT 10SM -RA SCT016 BKN023 OVC040 04/03 A2956 RMK AO2 P0003 T00430025
cycle: 2

Station Type Date Time Source
KDNV TAF UTC NOAA

Error!


Example: see airport list